Impacts TAF Board
For situational awareness. Not to be used for flight planning purposes.
IDs:

KDCA - Washington/National, VA, US

Issued at 0847 UTC 17 Feb 2019
Updated at 1012 UTC 17 Feb 2019
Potential Impact None Slight Moderate High
Time<<17/23Z 18/00Z 18/01Z 18/02Z 18/03Z 18/04Z 18/05Z 18/06Z 18/07Z 18/08Z 18/09Z 18/10Z 18/11Z>>
Type PRVL PRVL PRVL PRVL PRVL PRVL PRVL PRVL PRVL PRVL PRVL PRVL PRVL
VIS >6 4 4 4 4 4 4 4 4 4 >6 >6 >6
CIG 60 15 15 15 10 10 10 10 10 10 10 10 150
Cover BKN OVC OVC OVC OVC OVC OVC OVC OVC OVC OVC OVC OVC
FltCat VFR MVFR MVFR MVFR MVFR MVFR MVFR MVFR MVFR MVFR MVFR MVFR VFR
WX -- -RA -RA -RA -RA -RA -RA -RA -RA -RA -- -- --
WDir VRB 140 140 140 180 180 180 180 180 180 VRB VRB VRB
WSpd 3 6 6 6 4 4 4 4 4 4 3 3 3
WGst -- -- -- -- -- -- -- -- -- -- -- -- --
Raw TAF
KDCA 170847Z 1709/1812 02004KT P6SM FEW200
  FM171500 VRB03KT P6SM BKN060
  FM180000 14006KT 4SM -RA OVC015
  FM180300 18004KT 4SM -RA OVC010
  FM180900 VRB03KT P6SM OVC010
  FM181100 VRB03KT P6SM OVC150


METAR Board
Radar Display
Forecast Discussion
For situational awareness. Not to be used for flight planning purposes.